Lihue, HI (96766)

3:21 AM HST on December 07, 2016 (GMT -1000)
Uluko | | Change Station

Elev 187 ft 21.96 °N, 159.37 °W | Updated 19 seconds ago

Clear
Clear
66.9 °F
Feels Like 66.9 °F
N
0.9
Wind Variable Wind from WNW
Gusts 4.0 mph

Today
High -- | Low -- °F
--% Chance of Precip.
Yesterday
High -- | Low -- °F
Precip. -- in
Pressure 29.96 in
Visibility 10.0 miles
Clouds Clear
Dew Point 65 °F
Humidity 92%
Rainfall 0.00 in
Snow Depth Not available.
7:04 AM 5:54 PM
First Quarter, 52% visible
METAR PHLI 071253Z 29006KT 10SM CLR 21/18 A2997 RMK AO2 SLP145 T02060183
Pressure 29.96 in
Visibility 10.0 miles
Clouds Clear
Dew Point 65 °F
Humidity 92%
Rainfall 0.00 in
Snow Depth Not available.
7:04 AM 5:54 PM
First Quarter, 52% visible
METAR PHLI 071253Z 29006KT 10SM CLR 21/18 A2997 RMK AO2 SLP145 T02060183

10-Day Weather Forecast

Almanac

Astronomy

Dec. 07, 2016 Rise Set
Actual Time
Civil Twilight
Nautical Twilight
Astronomical Twilight
Moon
Length of Visible Light
Length of Day
Tomorrow will be .
, % of the Moon is Illuminated

Today's Extremes

State Highs State Lows

Community

WunderPhotos

Upload Photos

1,956,112 photos uploaded!

WunderBlog® & News

Nearby

Air Quality

  Air Quality AQ Index Pollutant
Not available.

Snow Depth

Station Depth Elevation

Earthquake Activity

City Distance Mag. Time & Date
Minimum magnitude displayed is 2.5.

Coastal Water Temperatures

Place Temperature

Stations

Nearby Weather Stations

Station Location Temp. Windchill Dew Point Humidity Wind Precip. Elev Updated Type
                   

Watches & Warnings

There are currently no watches in effect.